createdAt,value
2023-05-01T00:00:23.591Z,10.93
2023-05-01T00:03:09.427Z,9.82
2023-05-01T00:06:01.330Z,9.10
2023-05-01T00:08:46.644Z,9.20
2023-05-01T00:11:31.934Z,8.32
2023-05-01T00:14:17.446Z,11.00
2023-05-01T00:17:03.350Z,13.13
2023-05-01T00:19:53.480Z,11.48
2023-05-01T00:22:39.293Z,12.68
2023-05-01T00:25:24.670Z,10.60
2023-05-01T00:28:10.309Z,10.40
2023-05-01T00:30:56.123Z,9.65
2023-05-01T00:33:41.914Z,11.63
2023-05-01T00:36:27.591Z,10.40
2023-05-01T00:39:13.026Z,10.65
2023-05-01T00:41:58.777Z,11.48
2023-05-01T00:44:44.168Z,11.13
2023-05-01T00:47:29.537Z,10.52
2023-05-01T00:50:15.189Z,9.75
2023-05-01T00:53:00.909Z,10.65
2023-05-01T00:55:47.380Z,10.55
2023-05-01T00:58:33.031Z,12.00
2023-05-01T01:01:18.797Z,12.18
2023-05-01T01:04:04.736Z,11.10
2023-05-01T01:07:03.484Z,12.23
2023-05-01T01:10:30.896Z,11.48
2023-05-01T01:14:00.176Z,9.90
2023-05-01T01:16:59.013Z,9.18
2023-05-01T01:20:18.827Z,9.25
2023-05-01T01:23:49.743Z,13.25
2023-05-01T01:27:03.760Z,12.65
2023-05-01T01:29:55.338Z,8.55
2023-05-01T01:33:05.621Z,8.55
2023-05-01T01:35:57.784Z,4.97
2023-05-01T01:38:47.105Z,3.95
2023-05-01T01:41:36.177Z,4.75
2023-05-01T01:44:40.443Z,3.95
2023-05-01T01:47:32.017Z,3.65
2023-05-01T01:50:20.350Z,4.13
2023-05-01T01:53:08.813Z,3.75
2023-05-01T01:55:56.593Z,3.58
2023-05-01T01:58:44.551Z,3.17
2023-05-01T02:01:30.740Z,3.50
2023-05-01T02:04:18.146Z,3.38
2023-05-01T02:07:06.172Z,4.38
2023-05-01T02:09:53.982Z,4.55
2023-05-01T02:12:40.558Z,4.78
2023-05-01T02:15:27.969Z,3.72
2023-05-01T02:18:14.723Z,2.80
2023-05-01T02:21:02.926Z,2.72
2023-05-01T02:23:48.787Z,2.65
2023-05-01T02:26:43.131Z,2.20
2023-05-01T02:29:28.340Z,3.35
2023-05-01T02:32:14.029Z,2.00
2023-05-01T02:35:00.176Z,3.17
2023-05-01T02:37:46.155Z,3.53
2023-05-01T02:40:32.928Z,2.35
2023-05-01T02:43:20.996Z,2.60
2023-05-01T02:46:07.845Z,4.45
2023-05-01T02:48:54.838Z,2.25
2023-05-01T02:51:41.171Z,2.50
2023-05-01T02:54:27.040Z,1.95
2023-05-01T02:57:12.941Z,3.20
2023-05-01T02:59:58.669Z,3.47
2023-05-01T03:02:44.621Z,2.22
2023-05-01T03:05:30.057Z,4.10
2023-05-01T03:08:15.653Z,2.55
2023-05-01T03:11:05.405Z,2.20
2023-05-01T03:13:51.368Z,2.10
2023-05-01T03:16:36.630Z,2.78
2023-05-01T03:19:21.978Z,2.50
2023-05-01T03:22:07.813Z,2.10
2023-05-01T03:24:53.060Z,2.00
2023-05-01T03:27:39.547Z,2.55
2023-05-01T03:30:25.002Z,2.35
2023-05-01T03:33:10.389Z,2.10
2023-05-01T03:36:04.331Z,3.20
2023-05-01T03:38:49.822Z,2.80
2023-05-01T03:41:34.973Z,2.05
2023-05-01T03:44:20.531Z,1.95
2023-05-01T03:47:05.956Z,1.73
2023-05-01T03:49:51.542Z,2.10
2023-05-01T03:52:37.528Z,5.22
2023-05-01T03:55:22.996Z,2.03
2023-05-01T03:58:08.676Z,1.50
2023-05-01T04:00:57.057Z,1.58
2023-05-01T04:03:42.566Z,3.15
2023-05-01T04:06:28.253Z,2.25
2023-05-01T04:09:13.466Z,2.25
2023-05-01T04:11:59.178Z,1.67
2023-05-01T04:14:44.749Z,1.30
2023-05-01T04:17:30.021Z,1.80
2023-05-01T04:20:16.722Z,1.90
2023-05-01T04:23:02.185Z,1.80
2023-05-01T04:25:47.818Z,2.05
2023-05-01T04:28:33.109Z,1.90
2023-05-01T04:31:18.817Z,2.17
2023-05-01T04:34:04.292Z,3.60
2023-05-01T04:36:49.735Z,1.40
2023-05-01T04:39:36.304Z,1.90
2023-05-01T04:42:21.813Z,1.52
2023-05-01T04:45:07.454Z,2.05
2023-05-01T04:47:52.885Z,1.15
2023-05-01T04:50:38.334Z,1.35
2023-05-01T04:53:23.824Z,1.70
2023-05-01T04:56:09.405Z,3.15
2023-05-01T04:58:55.488Z,2.75
2023-05-01T05:01:41.337Z,6.57
2023-05-01T05:04:27.157Z,3.50
2023-05-01T05:07:13.423Z,3.00
2023-05-01T05:09:59.170Z,4.40
2023-05-01T05:12:44.398Z,3.30
2023-05-01T05:15:29.848Z,3.30
2023-05-01T05:18:15.606Z,1.27
2023-05-01T05:21:05.072Z,0.93
2023-05-01T05:23:51.155Z,1.63
2023-05-01T05:26:36.801Z,1.80
2023-05-01T05:29:22.486Z,1.98
2023-05-01T05:32:08.471Z,1.92
2023-05-01T05:34:54.123Z,3.67
2023-05-01T05:37:39.447Z,1.20
2023-05-01T05:40:25.043Z,2.70
2023-05-01T05:43:10.930Z,2.17
2023-05-01T05:46:00.708Z,4.53
2023-05-01T05:48:46.225Z,1.30
2023-05-01T05:51:31.939Z,1.50
2023-05-01T05:54:17.394Z,1.35
2023-05-01T05:57:04.289Z,3.22
2023-05-01T05:59:49.842Z,1.75
2023-05-01T06:02:35.491Z,3.42
2023-05-01T06:05:20.828Z,3.65
2023-05-01T06:08:06.570Z,3.58
2023-05-01T06:10:52.301Z,1.92
2023-05-01T06:13:37.980Z,2.10
2023-05-01T06:16:23.746Z,1.70
2023-05-01T06:19:12.156Z,3.33
2023-05-01T06:21:57.637Z,2.63
2023-05-01T06:24:42.950Z,3.15
2023-05-01T06:27:28.546Z,2.25
2023-05-01T06:30:13.942Z,1.55
2023-05-01T06:32:59.480Z,2.50
2023-05-01T06:35:44.977Z,3.03
2023-05-01T06:38:30.576Z,2.60
2023-05-01T06:41:16.928Z,2.20
2023-05-01T06:44:02.328Z,3.72
2023-05-01T06:46:47.928Z,1.50
2023-05-01T06:49:33.930Z,1.80
2023-05-01T06:52:19.530Z,1.83
2023-05-01T06:55:05.115Z,2.15
2023-05-01T06:57:50.391Z,2.28
2023-05-01T07:00:36.104Z,2.40
2023-05-01T07:03:21.458Z,1.98
2023-05-01T07:06:06.734Z,2.47
2023-05-01T07:08:52.033Z,3.50
2023-05-01T07:11:38.369Z,2.28
2023-05-01T07:14:24.169Z,4.00
2023-05-01T07:17:09.473Z,1.45
2023-05-01T07:19:55.350Z,1.30
2023-05-01T07:22:40.911Z,4.00
2023-05-01T07:25:26.118Z,2.08
2023-05-01T07:28:11.791Z,2.55
2023-05-01T07:30:57.170Z,1.42
2023-05-01T07:33:42.967Z,1.98
2023-05-01T07:36:28.537Z,1.15
2023-05-01T07:39:14.870Z,1.15
2023-05-01T07:42:00.706Z,1.00
2023-05-01T07:44:46.248Z,1.08
2023-05-01T07:47:31.582Z,1.77
2023-05-01T07:50:17.393Z,1.10
2023-05-01T07:53:02.805Z,1.17
2023-05-01T07:55:48.148Z,1.13
2023-05-01T07:58:33.591Z,1.50
2023-05-01T08:01:19.297Z,1.25
2023-05-01T08:04:04.689Z,1.55
2023-05-01T08:06:51.476Z,0.98
2023-05-01T08:09:37.271Z,1.40
2023-05-01T08:12:22.563Z,1.73
2023-05-01T08:15:09.565Z,1.13
2023-05-01T08:17:55.254Z,0.77
2023-05-01T08:20:40.636Z,2.88
2023-05-01T08:23:26.299Z,1.02
2023-05-01T08:26:12.042Z,3.00
2023-05-01T08:28:57.422Z,2.03
2023-05-01T08:31:43.974Z,1.63
2023-05-01T08:34:29.538Z,1.23
2023-05-01T08:37:14.784Z,1.40
2023-05-01T08:40:00.290Z,1.92
2023-05-01T08:42:45.921Z,1.30
2023-05-01T08:45:37.742Z,1.42
2023-05-01T08:48:25.461Z,2.00
2023-05-01T08:51:13.797Z,0.98
2023-05-01T08:54:02.069Z,1.10
2023-05-01T08:56:48.156Z,1.10
2023-05-01T08:59:38.227Z,1.77
2023-05-01T09:02:24.942Z,1.67
2023-05-01T09:05:11.447Z,0.93
2023-05-01T09:07:58.508Z,0.73
2023-05-01T09:10:47.134Z,1.58
2023-05-01T09:13:33.324Z,2.63
2023-05-01T09:16:19.350Z,1.80
2023-05-01T09:19:04.601Z,2.95
2023-05-01T09:21:50.760Z,2.00
2023-05-01T09:24:36.765Z,4.55
2023-05-01T09:27:22.639Z,1.58
2023-05-01T09:30:09.062Z,1.70
2023-05-01T09:33:14.436Z,1.90
2023-05-01T09:35:59.937Z,2.28
2023-05-01T09:38:45.371Z,2.47
2023-05-01T09:41:33.960Z,2.20
2023-05-01T09:44:19.531Z,3.13
2023-05-01T09:47:04.856Z,2.45
2023-05-01T09:49:50.290Z,2.10
2023-05-01T09:52:35.888Z,1.15
2023-05-01T09:55:25.416Z,1.10
2023-05-01T09:58:27.780Z,2.22
2023-05-01T10:01:13.086Z,1.70
2023-05-01T10:03:58.539Z,1.08
2023-05-01T10:06:44.065Z,1.88
2023-05-01T10:09:30.076Z,1.38
2023-05-01T10:12:30.015Z,0.90
2023-05-01T10:15:24.583Z,2.10
2023-05-01T10:18:12.157Z,1.10
2023-05-01T10:20:58.089Z,1.00
2023-05-01T10:23:43.513Z,2.03
2023-05-01T10:26:29.583Z,1.58
2023-05-01T10:29:15.411Z,1.38
2023-05-01T10:32:02.796Z,2.55
2023-05-01T10:34:55.087Z,1.52
2023-05-01T10:37:47.395Z,1.10
2023-05-01T10:40:39.336Z,1.20
2023-05-01T10:43:31.726Z,1.52
2023-05-01T10:46:19.159Z,3.72
2023-05-01T10:49:04.846Z,2.03
2023-05-01T10:52:01.958Z,1.15
2023-05-01T10:54:47.596Z,1.67
2023-05-01T10:57:44.405Z,1.98
2023-05-01T11:00:30.922Z,1.63
2023-05-01T11:03:22.252Z,1.23
2023-05-01T11:06:08.616Z,2.90
2023-05-01T11:08:55.088Z,1.50
2023-05-01T11:11:40.632Z,1.40
2023-05-01T11:14:25.952Z,2.17
2023-05-01T11:17:12.173Z,2.92
2023-05-01T11:19:58.842Z,1.55
2023-05-01T11:22:47.406Z,3.63
2023-05-01T11:25:33.952Z,2.17
2023-05-01T11:28:21.582Z,1.95
2023-05-01T11:31:07.405Z,2.10
2023-05-01T11:33:55.992Z,2.65
2023-05-01T11:36:52.524Z,1.15
2023-05-01T11:39:38.001Z,3.47
2023-05-01T11:42:23.403Z,2.28
2023-05-01T11:45:11.204Z,1.88
2023-05-01T11:47:57.230Z,1.58
2023-05-01T11:50:42.840Z,2.28
2023-05-01T11:53:30.042Z,2.22
2023-05-01T11:56:26.987Z,2.58
2023-05-01T11:59:16.892Z,2.72
2023-05-01T12:02:02.704Z,1.65
2023-05-01T12:04:48.110Z,2.40
2023-05-01T12:07:36.799Z,2.75
2023-05-01T12:10:22.575Z,2.25
2023-05-01T12:13:10.188Z,1.45
2023-05-01T12:15:57.771Z,2.75
2023-05-01T12:18:43.531Z,2.90
2023-05-01T12:21:29.475Z,4.25
2023-05-01T12:24:19.388Z,4.07
2023-05-01T12:27:04.948Z,2.35
2023-05-01T12:29:50.646Z,3.33
2023-05-01T12:32:36.184Z,3.92
2023-05-01T12:35:22.084Z,2.22
2023-05-01T12:38:16.644Z,2.00
2023-05-01T12:41:02.771Z,2.70
2023-05-01T12:43:48.394Z,3.55
2023-05-01T12:46:33.972Z,2.67
2023-05-01T12:49:20.600Z,2.25
2023-05-01T12:52:09.097Z,2.42
2023-05-01T12:55:03.535Z,2.38
2023-05-01T12:57:54.414Z,2.10
2023-05-01T13:00:46.150Z,3.63
2023-05-01T13:03:33.864Z,3.15
2023-05-01T13:06:19.500Z,3.88
2023-05-01T13:09:11.295Z,4.95
2023-05-01T13:12:05.312Z,4.13
2023-05-01T13:14:51.493Z,2.63
2023-05-01T13:17:38.575Z,2.58
2023-05-01T13:20:28.152Z,1.88
2023-05-01T13:23:13.748Z,2.05
2023-05-01T13:25:59.109Z,2.33
2023-05-01T13:28:45.587Z,2.00
2023-05-01T13:31:31.309Z,2.85
2023-05-01T13:34:30.338Z,2.10
2023-05-01T13:37:16.687Z,2.97
2023-05-01T13:40:03.285Z,1.70
2023-05-01T13:42:52.725Z,2.10
2023-05-01T13:45:38.166Z,2.03
2023-05-01T13:48:24.537Z,2.25
2023-05-01T13:51:11.119Z,2.38
2023-05-01T13:53:56.985Z,2.20
2023-05-01T13:56:42.533Z,2.38
2023-05-01T13:59:37.041Z,2.28
2023-05-01T14:02:28.042Z,3.72
2023-05-01T14:05:13.655Z,2.00
2023-05-01T14:07:59.405Z,1.80
2023-05-01T14:10:44.960Z,1.45
2023-05-01T14:13:30.894Z,3.65
2023-05-01T14:16:27.422Z,2.03
2023-05-01T14:19:16.240Z,2.40
2023-05-01T14:22:02.658Z,2.78
2023-05-01T14:24:48.002Z,1.83
2023-05-01T14:27:34.189Z,1.55
2023-05-01T14:30:34.640Z,1.33
2023-05-01T14:33:20.118Z,1.88
2023-05-01T14:36:05.411Z,1.35
2023-05-01T14:38:51.806Z,1.90
2023-05-01T14:41:40.837Z,1.98
2023-05-01T14:44:28.788Z,1.40
2023-05-01T14:47:18.864Z,1.60
2023-05-01T14:50:04.181Z,1.42
2023-05-01T14:52:57.301Z,1.73
2023-05-01T14:55:42.892Z,1.92
2023-05-01T14:58:28.278Z,1.95
2023-05-01T15:01:14.616Z,2.05
2023-05-01T15:04:01.753Z,3.55
2023-05-01T15:06:49.153Z,2.00
2023-05-01T15:09:34.640Z,3.00
2023-05-01T15:12:20.392Z,2.60
2023-05-01T15:15:06.734Z,3.83
2023-05-01T15:17:52.143Z,1.40
2023-05-01T15:20:37.768Z,1.90
2023-05-01T15:23:25.287Z,2.60
2023-05-01T15:26:11.484Z,2.67
2023-05-01T15:28:56.956Z,1.58
2023-05-01T15:31:42.376Z,1.85
2023-05-01T15:34:27.729Z,1.10
2023-05-01T15:37:13.352Z,2.60
2023-05-01T15:39:59.631Z,2.33
2023-05-01T15:42:48.055Z,1.20
2023-05-01T15:45:33.623Z,1.15
2023-05-01T15:48:19.345Z,1.67
2023-05-01T15:51:04.999Z,0.90
2023-05-01T15:53:50.587Z,1.10
2023-05-01T15:56:38.424Z,1.10
2023-05-01T15:59:23.850Z,2.28
2023-05-01T16:02:09.143Z,1.90
2023-05-01T16:04:54.706Z,2.15
2023-05-01T16:07:40.266Z,2.30
2023-05-01T16:10:27.130Z,2.55
2023-05-01T16:13:12.837Z,2.10
2023-05-01T16:15:58.389Z,2.40
2023-05-01T16:18:43.957Z,3.08
2023-05-01T16:21:29.829Z,3.90
2023-05-01T16:24:15.286Z,10.55
2023-05-01T16:27:00.982Z,4.68
2023-05-01T16:29:46.425Z,5.85
2023-05-01T16:32:31.997Z,3.63
2023-05-01T16:35:18.420Z,3.58
2023-05-01T16:38:04.098Z,6.10
2023-05-01T16:40:49.626Z,6.38
2023-05-01T16:43:35.937Z,4.93
2023-05-01T16:46:21.895Z,4.90
2023-05-01T16:49:07.064Z,3.58
2023-05-01T16:51:56.710Z,4.28
2023-05-01T16:54:42.464Z,5.97
2023-05-01T16:57:29.211Z,5.07
2023-05-01T17:00:15.964Z,4.40
2023-05-01T17:03:02.295Z,2.90
2023-05-01T17:05:47.755Z,3.22
2023-05-01T17:08:33.317Z,4.13
2023-05-01T17:11:19.217Z,4.55
2023-05-01T17:14:05.005Z,3.22
2023-05-01T17:16:50.608Z,4.68
2023-05-01T17:19:38.816Z,5.38
2023-05-01T17:22:24.436Z,4.15
2023-05-01T17:25:10.574Z,3.13
2023-05-01T17:27:56.043Z,3.83
2023-05-01T17:30:41.353Z,3.60
2023-05-01T17:33:30.348Z,2.80
2023-05-01T17:36:15.992Z,2.47
2023-05-01T17:39:01.590Z,2.38
2023-05-01T17:41:46.868Z,3.10
2023-05-01T17:44:33.140Z,2.92
2023-05-01T17:47:18.647Z,3.30
2023-05-01T17:50:04.830Z,3.15
2023-05-01T17:52:50.335Z,2.88
2023-05-01T17:55:38.144Z,3.03
2023-05-01T17:58:23.684Z,4.38
2023-05-01T18:01:09.231Z,2.63
2023-05-01T18:03:55.025Z,2.85
2023-05-01T18:06:41.628Z,2.90
2023-05-01T18:09:27.256Z,2.83
2023-05-01T18:12:13.002Z,2.42
2023-05-01T18:14:58.258Z,5.55
2023-05-01T18:17:43.876Z,3.33
2023-05-01T18:20:29.416Z,3.03
2023-05-01T18:23:15.179Z,3.13
2023-05-01T18:26:00.769Z,2.25
2023-05-01T18:28:46.099Z,2.30
2023-05-01T18:31:34.069Z,2.85
2023-05-01T18:34:19.887Z,4.97
2023-05-01T18:37:05.555Z,3.15
2023-05-01T18:39:50.931Z,2.58
2023-05-01T18:42:36.191Z,3.13
2023-05-01T18:45:22.045Z,3.20
2023-05-01T18:48:08.578Z,5.13
2023-05-01T18:51:07.246Z,3.80
2023-05-01T18:53:54.663Z,3.20
2023-05-01T18:56:40.308Z,4.88
2023-05-01T18:59:31.066Z,4.70
2023-05-01T19:02:16.484Z,5.60
2023-05-01T19:05:02.359Z,3.20
2023-05-01T19:07:48.197Z,2.85
2023-05-01T19:10:35.431Z,3.75
2023-05-01T19:13:22.093Z,2.60
2023-05-01T19:16:07.639Z,2.83
2023-05-01T19:18:53.208Z,2.00
2023-05-01T19:21:38.373Z,2.83
2023-05-01T19:24:24.098Z,3.08
2023-05-01T19:27:09.867Z,2.17
2023-05-01T19:29:55.127Z,2.30
2023-05-01T19:32:40.857Z,3.72
2023-05-01T19:35:26.336Z,2.30
2023-05-01T19:38:11.703Z,2.63
2023-05-01T19:40:57.316Z,2.42
2023-05-01T19:43:42.908Z,5.63
2023-05-01T19:46:28.258Z,2.25
2023-05-01T19:49:13.747Z,2.75
2023-05-01T19:51:59.882Z,3.22
2023-05-01T19:54:45.694Z,4.63
2023-05-01T19:57:31.459Z,2.97
2023-05-01T20:00:17.080Z,3.28
2023-05-01T20:03:02.532Z,2.95
2023-05-01T20:05:48.142Z,3.08
2023-05-01T20:08:34.059Z,4.75
2023-05-01T20:11:19.605Z,4.63
2023-05-01T20:14:05.162Z,3.38
2023-05-01T20:16:52.308Z,2.60
2023-05-01T20:19:39.833Z,3.13
2023-05-01T20:22:25.451Z,2.80
2023-05-01T20:25:11.493Z,4.00
2023-05-01T20:27:57.038Z,5.05
2023-05-01T20:30:44.339Z,3.38
2023-05-01T20:33:29.916Z,2.80
2023-05-01T20:36:17.441Z,2.97
2023-05-01T20:39:03.424Z,3.33
2023-05-01T20:41:49.635Z,4.57
2023-05-01T20:44:34.885Z,6.88
2023-05-01T20:47:20.995Z,2.92
2023-05-01T20:50:07.618Z,4.03
2023-05-01T20:52:54.849Z,2.90
2023-05-01T20:55:40.119Z,3.50
2023-05-01T20:58:25.844Z,2.97
2023-05-01T21:01:11.916Z,3.10
2023-05-01T21:03:58.693Z,3.60
2023-05-01T21:06:44.637Z,6.43
2023-05-01T21:09:30.046Z,14.90
2023-05-01T21:12:15.680Z,12.73
2023-05-01T21:15:02.355Z,13.80
2023-05-01T21:17:48.074Z,8.55
2023-05-01T21:20:35.587Z,3.88
2023-05-01T21:23:21.255Z,6.72
2023-05-01T21:26:07.014Z,5.10
2023-05-01T21:28:52.367Z,3.30
2023-05-01T21:31:39.114Z,3.03
2023-05-01T21:34:24.743Z,2.50
2023-05-01T21:37:11.071Z,4.28
2023-05-01T21:40:01.252Z,3.22
2023-05-01T21:42:47.006Z,2.95
2023-05-01T21:45:34.380Z,3.85
2023-05-01T21:48:20.331Z,3.00
2023-05-01T21:51:06.148Z,2.83
2023-05-01T21:53:51.944Z,3.22
2023-05-01T21:56:37.714Z,2.70
2023-05-01T21:59:23.520Z,2.80
2023-05-01T22:02:10.697Z,6.32
2023-05-01T22:04:56.025Z,3.00
2023-05-01T22:07:43.779Z,2.70
2023-05-01T22:10:29.722Z,2.38
2023-05-01T22:13:14.842Z,3.13
2023-05-01T22:16:00.980Z,2.78
2023-05-01T22:18:48.606Z,2.75
2023-05-01T22:21:34.916Z,3.15
2023-05-01T22:24:20.473Z,2.95
2023-05-01T22:27:06.755Z,3.65
2023-05-01T22:29:52.227Z,2.45
2023-05-01T22:32:37.825Z,5.95
2023-05-01T22:35:23.105Z,3.47
2023-05-01T22:38:08.710Z,3.22
2023-05-01T22:40:54.584Z,3.00
2023-05-01T22:43:40.152Z,4.63
2023-05-01T22:46:25.797Z,2.95
2023-05-01T22:49:11.660Z,2.95
2023-05-01T22:51:57.593Z,2.88
2023-05-01T22:54:43.247Z,3.17
2023-05-01T22:57:28.801Z,3.03
2023-05-01T23:00:14.412Z,4.07
2023-05-01T23:03:00.640Z,3.72
2023-05-01T23:05:46.037Z,3.58
2023-05-01T23:08:31.392Z,5.57
2023-05-01T23:11:18.896Z,4.18
2023-05-01T23:14:04.202Z,3.00
2023-05-01T23:16:49.732Z,4.25
2023-05-01T23:19:35.146Z,3.40
2023-05-01T23:22:21.367Z,2.20
2023-05-01T23:25:07.460Z,2.42
2023-05-01T23:27:54.826Z,2.60
2023-05-01T23:30:44.454Z,8.45
2023-05-01T23:33:38.641Z,2.67
2023-05-01T23:36:24.460Z,3.80
2023-05-01T23:39:10.251Z,3.92
2023-05-01T23:41:56.525Z,2.28
2023-05-01T23:44:42.516Z,2.65
2023-05-01T23:47:28.238Z,2.38
2023-05-01T23:50:13.854Z,3.38
2023-05-01T23:53:02.576Z,2.28
2023-05-01T23:55:48.144Z,2.03
2023-05-01T23:58:33.428Z,2.78
